Weather History for KTBX - February, 2014

Change the Weather History Date:

Thursday, February 27, 2014

  Actual Average (KWRL) Record (KWRL)
Temperature  
Mean Temperature 34 °F 29 °F  
Max Temperature 41 °F 43 °F 67 °F (1972)
Min Temperature 26 °F 15 °F -20 °F (1962)
Degree Days  
Heating Degree Days 32 36  
Month to date heating degree days 1119  
Since 1 July heating degree days 5967  
Cooling Degree Days 0 0  
Month to date cooling degree days 0  
Year to date cooling degree days 0  
Moisture  
Dew Point 19 °F    
Average Humidity 56    
Maximum Humidity 70    
Minimum Humidity 26    
Precipitation  
Precipitation 0.00 in 0.01 in 0.24 in (1995)
Month to date precipitation 0.18  
Year to date precipitation 0.41  
Sea Level Pressure  
Sea Level Pressure 29.70 in    
Wind  
Wind Speed 11 mph (SSW)    
Max Wind Speed 23 mph    
Max Gust Speed 25 mph    
Visibility 10 miles    
Events      
T = Trace of Precipitation, MM = Missing Value Source: NWS Daily Summary

Daily Weather History Graph

Daily Weather History Graph

Search for Another Location

Airport or City:

Trip Planner

Search our weather history database for the weather conditions in past years. The results will help you decide how hot, cold, wet, or windy it might be!

Date:

Astronomy

Feb. 27, 2014 Rise Set
Actual Time 6:52 AM MST 5:59 PM MST
Civil Twilight 6:23 AM MST 6:28 PM MST
Nautical Twilight 5:50 AM MST 7:01 PM MST
Astronomical Twilight 5:17 AM MST 7:34 PM MST
Moon 5:29 AM MST (2/27) 4:27 PM MST (2/27)
Length of Visible Light 12h 04m
Length of Day
11h 06m
Waning Crescent, 4% of the Moon is Illuminated
Feb 27
Waning Crescent
Mar 1
New
Mar 8
First Quarter
Mar 16
Full
Mar 23
Last Quarter

Hourly Weather History & Observations

Time (MST) Temp. Windchill Dew Point Humidity Pressure Visibility Wind Dir Wind Speed Gust Speed Precip Events Conditions
12:15 AM 26.6 °F 18.2 °F -4.0 °F 26% 29.88 in - SSE 8.1 mph - N/A   Clear
12:35 AM 26.6 °F 20.0 °F -2.2 °F 29% 29.87 in - SSE 5.8 mph - N/A   Clear
12:55 AM 26.6 °F 19.1 °F -4.0 °F 26% 29.87 in - SSE 6.9 mph - N/A   Clear
1:15 AM 28.4 °F 19.1 °F 3.2 °F 34% 29.86 in - South 10.4 mph - N/A   Clear
1:35 AM 26.6 °F 18.2 °F 3.2 °F 37% 29.86 in - SSE 8.1 mph - N/A   Clear
1:55 AM 26.6 °F 17.5 °F 3.2 °F 37% 29.85 in - SSE 9.2 mph - N/A   Clear
2:15 AM 26.6 °F 17.5 °F 3.2 °F 37% 29.85 in - South 9.2 mph - N/A   Clear
2:35 AM 28.4 °F 17.5 °F 6.8 °F 40% 29.83 in - South 13.8 mph - N/A   Clear
2:55 AM 28.4 °F 17.0 °F 8.6 °F 43% 29.82 in - South 15.0 mph - N/A   Clear
3:15 AM 28.4 °F 15.8 °F 8.6 °F 43% 29.82 in - SSW 18.4 mph - N/A   Clear
3:35 AM 30.2 °F 17.8 °F 10.4 °F 44% 29.81 in - SSW 19.6 mph 25.3 mph N/A   Clear
4:00 AM 30.2 °F 18.1 °F 10.4 °F 44% 29.80 in - SSW 18.4 mph - N/A   Clear
4:15 AM 28.4 °F 16.2 °F 10.4 °F 47% 29.79 in - SSW 17.3 mph 20.7 mph N/A   Clear
4:35 AM 26.6 °F 15.7 °F 8.6 °F 47% 29.79 in - South 12.7 mph - N/A   Clear
4:55 AM 28.4 °F 16.6 °F 12.2 °F 51% 29.79 in - SSW 16.1 mph - N/A   Clear
5:15 AM 30.2 °F 19.3 °F 14.0 °F 51% 29.78 in - SW 15.0 mph 21.9 mph N/A   Clear
5:35 AM 33.8 °F 23.5 °F 12.2 °F 41% 29.78 in - SW 16.1 mph 21.9 mph N/A   Clear
5:55 AM 33.8 °F 22.8 °F 14.0 °F 44% 29.78 in - SW 18.4 mph - N/A   Clear
6:15 AM 33.8 °F 25.3 °F 14.0 °F 44% 29.78 in - SW 11.5 mph - N/A   Clear
6:35 AM 32.0 °F 22.5 °F 15.8 °F 51% 29.77 in - SW 12.7 mph - N/A   Clear
6:55 AM 32.0 °F 23.0 °F 15.8 °F 51% 29.77 in - SW 11.5 mph - N/A   Clear
7:15 AM 33.8 °F 25.3 °F 17.6 °F 52% 29.76 in - SW 11.5 mph - N/A   Clear
7:35 AM 33.8 °F 27.7 °F 17.6 °F 52% 29.76 in - SW 6.9 mph - N/A   Clear
7:55 AM 35.6 °F 28.0 °F 19.4 °F 52% 29.76 in - SW 10.4 mph - N/A   Clear
8:15 AM 35.6 °F 27.1 °F 17.6 °F 48% 29.76 in - WSW 12.7 mph - N/A   Clear
8:35 AM 35.6 °F 27.1 °F 19.4 °F 52% 29.75 in - WSW 12.7 mph - N/A   Clear
8:55 AM 32.0 °F 24.8 °F 17.6 °F 55% 29.75 in - South 8.1 mph - N/A   Clear
9:15 AM 30.2 °F 19.8 °F 19.4 °F 64% 29.75 in - South 13.8 mph - N/A   Clear
9:35 AM 32.0 °F 22.1 °F 21.2 °F 64% 29.74 in - South 13.8 mph - N/A   Clear
9:55 AM 30.2 °F 19.3 °F 21.2 °F 69% 29.73 in - SSW 15.0 mph - N/A   Clear
10:15 AM 32.0 °F 21.6 °F 23.0 °F 69% 29.73 in - SSW 15.0 mph - N/A   Clear
10:35 AM 32.0 °F 22.1 °F 23.0 °F 69% 29.73 in - SSW 13.8 mph - N/A   Clear
10:55 AM 33.8 °F 25.3 °F 23.0 °F 65% 29.73 in - South 11.5 mph - N/A   Scattered Clouds
11:15 AM 33.8 °F 23.9 °F 23.0 °F 65% 29.72 in - South 15.0 mph - N/A   Mostly Cloudy
11:35 AM 35.6 °F 27.1 °F 24.8 °F 65% 29.71 in 10.0 mi SW 12.7 mph - N/A   Mostly Cloudy
11:55 AM 35.6 °F 30.7 °F 23.0 °F 60% 29.70 in 10.0 mi South 5.8 mph - N/A   Scattered Clouds
12:15 PM 37.4 °F 30.3 °F 26.6 °F 65% 29.69 in 10.0 mi SSW 10.4 mph 18.4 mph N/A   Clear
12:35 PM 37.4 °F 30.3 °F 24.8 °F 60% 29.68 in 10.0 mi South 10.4 mph 19.6 mph N/A   Scattered Clouds
12:55 PM 37.4 °F 29.3 °F 26.6 °F 65% 29.67 in 10.0 mi SSW 12.7 mph 18.4 mph N/A   Clear
1:15 PM 37.4 °F 30.3 °F 24.8 °F 60% 29.66 in 10.0 mi SSW 10.4 mph - N/A   Clear
1:35 PM 37.4 °F 29.8 °F 24.8 °F 60% 29.65 in 10.0 mi SSW 11.5 mph - N/A   Clear
1:55 PM 35.6 °F 29.2 °F 24.8 °F 65% 29.65 in 10.0 mi South 8.1 mph 17.3 mph N/A   Clear
2:15 PM 37.4 °F 29.8 °F 24.8 °F 60% 29.64 in 10.0 mi SSW 11.5 mph - N/A   Clear
2:35 PM 37.4 °F 29.8 °F 26.6 °F 65% 29.63 in 10.0 mi SSW 11.5 mph - N/A   Clear
2:55 PM 37.4 °F 30.8 °F 26.6 °F 65% 29.63 in 10.0 mi SSW 9.2 mph - N/A   Clear
3:15 PM 37.4 °F 31.4 °F 26.6 °F 65% 29.63 in 10.0 mi SSW 8.1 mph - N/A   Clear
3:35 PM 41.0 °F 36.4 °F 24.8 °F 53% 29.63 in 10.0 mi WSW 6.9 mph - N/A   Clear
3:55 PM 39.2 °F 37.0 °F 23.0 °F 52% 29.62 in 10.0 mi SSW 3.5 mph - N/A   Clear
4:15 PM 37.4 °F 34.9 °F 24.8 °F 60% 29.62 in 10.0 mi SSE 3.5 mph - N/A   Clear
4:35 PM 39.2 °F 35.9 °F 23.0 °F 52% 29.61 in 10.0 mi South 4.6 mph - N/A   Clear
4:55 PM 37.4 °F 33.8 °F 24.8 °F 60% 29.61 in 10.0 mi South 4.6 mph - N/A   Clear
5:15 PM 35.6 °F 31.7 °F 23.0 °F 60% 29.61 in 10.0 mi SSE 4.6 mph - N/A   Clear
5:35 PM 35.6 °F 32.8 °F 23.0 °F 60% 29.61 in 10.0 mi SSE 3.5 mph - N/A   Clear
5:55 PM 33.8 °F 27.7 °F 23.0 °F 65% 29.61 in 10.0 mi SSE 6.9 mph - N/A   Clear
6:15 PM 33.8 °F 28.6 °F 23.0 °F 65% 29.61 in 10.0 mi SE 5.8 mph - N/A   Scattered Clouds
6:35 PM 33.8 °F 25.3 °F 24.8 °F 70% 29.61 in 10.0 mi SSE 11.5 mph - N/A   Mostly Cloudy
6:55 PM 33.8 °F 25.8 °F 24.8 °F 70% 29.62 in 10.0 mi South 10.4 mph - N/A   Overcast
7:15 PM 35.6 °F 28.0 °F 24.8 °F 65% 29.61 in 10.0 mi SSE 10.4 mph - N/A   Overcast
7:35 PM 33.8 °F 24.8 °F 24.8 °F 70% 29.61 in 10.0 mi SSE 12.7 mph - N/A   Mostly Cloudy
7:55 PM 33.8 °F 24.8 °F 23.0 °F 65% 29.61 in 10.0 mi SSE 12.7 mph - N/A   Mostly Cloudy
8:15 PM 32.0 °F 24.2 °F 23.0 °F 69% 29.61 in 10.0 mi SSE 9.2 mph - N/A   Scattered Clouds
8:35 PM 32.0 °F 24.2 °F 23.0 °F 69% 29.61 in 10.0 mi SE 9.2 mph - N/A   Clear
8:55 PM 32.0 °F 24.8 °F 23.0 °F 69% 29.61 in 10.0 mi SSE 8.1 mph - N/A   Mostly Cloudy
9:15 PM 32.0 °F 26.4 °F 21.2 °F 64% 29.61 in 10.0 mi SSE 5.8 mph - N/A   Overcast
9:35 PM 32.0 °F 23.0 °F 21.2 °F 64% 29.61 in 10.0 mi South 11.5 mph 18.4 mph N/A   Overcast
10:00 PM 33.8 °F 24.3 °F 23.0 °F 65% 29.61 in 10.0 mi South 13.8 mph 17.3 mph N/A   Overcast
10:15 PM 33.8 °F 22.8 °F 23.0 °F 65% 29.61 in 10.0 mi SSW 18.4 mph 24.2 mph N/A   Overcast
10:35 PM 33.8 °F 22.5 °F 23.0 °F 65% 29.61 in 10.0 mi SSW 19.6 mph - N/A   Overcast
10:55 PM 37.4 °F 26.6 °F 24.8 °F 60% 29.60 in 10.0 mi SW 21.9 mph - N/A   Overcast
11:15 PM 37.4 °F 26.4 °F 24.8 °F 60% 29.61 in 10.0 mi WSW 23.0 mph - N/A   Overcast
11:35 PM 37.4 °F 27.8 °F 24.8 °F 60% 29.61 in 10.0 mi SW 17.3 mph - N/A   Overcast
11:55 PM 33.8 °F 23.9 °F 23.0 °F 65% 29.60 in 10.0 mi South 15.0 mph 18.4 mph N/A   Overcast